sensor_id;sensor_type;location;lat;lon;timestamp;temperature;humidity
18384;DHT22;9318;48.644;9.456;2022-12-07T00:01:21;6.50;99.90
18384;DHT22;9318;48.644;9.456;2022-12-07T00:03:51;6.50;99.90
18384;DHT22;9318;48.644;9.456;2022-12-07T00:06:19;6.60;99.90
18384;DHT22;9318;48.644;9.456;2022-12-07T00:08:47;6.60;99.90
18384;DHT22;9318;48.644;9.456;2022-12-07T00:11:16;6.50;99.90
18384;DHT22;9318;48.644;9.456;2022-12-07T00:13:44;6.50;99.90
18384;DHT22;9318;48.644;9.456;2022-12-07T00:16:14;6.60;99.90
18384;DHT22;9318;48.644;9.456;2022-12-07T00:18:42;6.70;99.90
18384;DHT22;9318;48.644;9.456;2022-12-07T00:21:12;6.80;99.90
18384;DHT22;9318;48.644;9.456;2022-12-07T00:23:40;6.90;99.90
18384;DHT22;9318;48.644;9.456;2022-12-07T00:26:09;6.90;99.90
18384;DHT22;9318;48.644;9.456;2022-12-07T00:28:37;6.90;99.90
18384;DHT22;9318;48.644;9.456;2022-12-07T00:31:05;6.80;99.90
18384;DHT22;9318;48.644;9.456;2022-12-07T00:33:35;6.80;99.90
18384;DHT22;9318;48.644;9.456;2022-12-07T00:36:04;6.90;99.90
18384;DHT22;9318;48.644;9.456;2022-12-07T00:38:33;6.80;99.90
18384;DHT22;9318;48.644;9.456;2022-12-07T00:41:02;6.90;99.90
18384;DHT22;9318;48.644;9.456;2022-12-07T00:43:32;6.90;99.90
18384;DHT22;9318;48.644;9.456;2022-12-07T00:45:59;6.80;99.90
18384;DHT22;9318;48.644;9.456;2022-12-07T00:48:26;6.70;99.90
18384;DHT22;9318;48.644;9.456;2022-12-07T00:50:54;6.70;99.90
18384;DHT22;9318;48.644;9.456;2022-12-07T00:53:22;6.70;99.90
18384;DHT22;9318;48.644;9.456;2022-12-07T00:55:49;6.80;99.90
18384;DHT22;9318;48.644;9.456;2022-12-07T00:58:18;6.70;99.90
18384;DHT22;9318;48.644;9.456;2022-12-07T01:00:45;6.80;99.90
18384;DHT22;9318;48.644;9.456;2022-12-07T01:03:16;6.70;99.90
18384;DHT22;9318;48.644;9.456;2022-12-07T01:05:50;6.40;99.90
18384;DHT22;9318;48.644;9.456;2022-12-07T01:08:19;6.50;99.90
18384;DHT22;9318;48.644;9.456;2022-12-07T01:10:46;6.40;99.90
18384;DHT22;9318;48.644;9.456;2022-12-07T01:13:14;6.50;99.90
18384;DHT22;9318;48.644;9.456;2022-12-07T01:15:42;6.50;99.90
18384;DHT22;9318;48.644;9.456;2022-12-07T01:18:09;6.60;99.90
18384;DHT22;9318;48.644;9.456;2022-12-07T01:20:37;6.70;99.90
18384;DHT22;9318;48.644;9.456;2022-12-07T01:23:04;6.80;99.90
18384;DHT22;9318;48.644;9.456;2022-12-07T01:25:33;6.90;99.90
18384;DHT22;9318;48.644;9.456;2022-12-07T01:28:00;6.90;99.90
18384;DHT22;9318;48.644;9.456;2022-12-07T01:30:28;7.00;99.90
18384;DHT22;9318;48.644;9.456;2022-12-07T01:32:55;7.00;99.90
18384;DHT22;9318;48.644;9.456;2022-12-07T01:35:22;6.90;99.90
18384;DHT22;9318;48.644;9.456;2022-12-07T01:37:50;6.80;99.90
18384;DHT22;9318;48.644;9.456;2022-12-07T01:40:17;6.80;99.90
18384;DHT22;9318;48.644;9.456;2022-12-07T01:42:45;6.80;99.90
18384;DHT22;9318;48.644;9.456;2022-12-07T01:45:36;6.80;99.90
18384;DHT22;9318;48.644;9.456;2022-12-07T01:48:04;6.80;99.90
18384;DHT22;9318;48.644;9.456;2022-12-07T01:50:33;6.80;99.90
18384;DHT22;9318;48.644;9.456;2022-12-07T01:53:03;6.90;99.90
18384;DHT22;9318;48.644;9.456;2022-12-07T01:55:33;7.00;99.90
18384;DHT22;9318;48.644;9.456;2022-12-07T01:58:02;7.00;99.90
18384;DHT22;9318;48.644;9.456;2022-12-07T02:00:29;7.00;99.90
18384;DHT22;9318;48.644;9.456;2022-12-07T02:03:01;7.00;99.90
18384;DHT22;9318;48.644;9.456;2022-12-07T02:05:31;7.00;99.90
18384;DHT22;9318;48.644;9.456;2022-12-07T02:07:59;7.10;99.90
18384;DHT22;9318;48.644;9.456;2022-12-07T02:10:29;7.00;99.90
18384;DHT22;9318;48.644;9.456;2022-12-07T02:12:59;6.90;99.90
18384;DHT22;9318;48.644;9.456;2022-12-07T02:15:34;6.90;99.90
18384;DHT22;9318;48.644;9.456;2022-12-07T02:18:09;6.90;99.90
18384;DHT22;9318;48.644;9.456;2022-12-07T02:20:41;6.90;99.90
18384;DHT22;9318;48.644;9.456;2022-12-07T02:23:34;6.80;99.90
18384;DHT22;9318;48.644;9.456;2022-12-07T02:26:36;6.70;99.90
18384;DHT22;9318;48.644;9.456;2022-12-07T02:29:16;6.60;99.90
18384;DHT22;9318;48.644;9.456;2022-12-07T02:31:47;6.50;99.90
18384;DHT22;9318;48.644;9.456;2022-12-07T02:34:23;6.40;99.90
18384;DHT22;9318;48.644;9.456;2022-12-07T02:36:55;6.50;99.90
18384;DHT22;9318;48.644;9.456;2022-12-07T02:39:28;6.40;99.90
18384;DHT22;9318;48.644;9.456;2022-12-07T02:42:02;6.40;99.90
18384;DHT22;9318;48.644;9.456;2022-12-07T02:44:33;6.60;99.90
18384;DHT22;9318;48.644;9.456;2022-12-07T02:47:03;6.60;99.90
18384;DHT22;9318;48.644;9.456;2022-12-07T02:49:33;6.80;99.90
18384;DHT22;9318;48.644;9.456;2022-12-07T02:52:00;6.80;99.90
18384;DHT22;9318;48.644;9.456;2022-12-07T02:54:27;6.80;99.90
18384;DHT22;9318;48.644;9.456;2022-12-07T02:57:02;6.70;99.90
18384;DHT22;9318;48.644;9.456;2022-12-07T02:59:41;6.80;99.90
18384;DHT22;9318;48.644;9.456;2022-12-07T03:02:20;6.70;99.90
18384;DHT22;9318;48.644;9.456;2022-12-07T03:04:59;6.70;99.90
18384;DHT22;9318;48.644;9.456;2022-12-07T03:07:33;6.70;99.90
18384;DHT22;9318;48.644;9.456;2022-12-07T03:10:07;6.60;99.90
18384;DHT22;9318;48.644;9.456;2022-12-07T03:12:41;6.70;99.90
18384;DHT22;9318;48.644;9.456;2022-12-07T03:15:14;6.90;99.90
18384;DHT22;9318;48.644;9.456;2022-12-07T03:17:44;7.00;99.90
18384;DHT22;9318;48.644;9.456;2022-12-07T03:20:16;6.80;99.90
18384;DHT22;9318;48.644;9.456;2022-12-07T03:22:47;6.70;99.90
18384;DHT22;9318;48.644;9.456;2022-12-07T03:25:16;6.70;99.90
18384;DHT22;9318;48.644;9.456;2022-12-07T03:27:58;6.60;99.90
18384;DHT22;9318;48.644;9.456;2022-12-07T03:30:34;6.60;99.90
18384;DHT22;9318;48.644;9.456;2022-12-07T03:33:06;6.60;99.90
18384;DHT22;9318;48.644;9.456;2022-12-07T03:35:38;6.50;99.90
18384;DHT22;9318;48.644;9.456;2022-12-07T03:38:13;6.60;99.90
18384;DHT22;9318;48.644;9.456;2022-12-07T03:40:46;6.50;99.90
18384;DHT22;9318;48.644;9.456;2022-12-07T03:43:17;6.30;99.90
18384;DHT22;9318;48.644;9.456;2022-12-07T03:45:54;6.30;99.90
18384;DHT22;9318;48.644;9.456;2022-12-07T03:48:28;6.20;99.90
18384;DHT22;9318;48.644;9.456;2022-12-07T03:51:06;6.40;99.90
18384;DHT22;9318;48.644;9.456;2022-12-07T03:53:36;6.40;99.90
18384;DHT22;9318;48.644;9.456;2022-12-07T03:56:07;6.50;99.90
18384;DHT22;9318;48.644;9.456;2022-12-07T03:58:35;6.50;99.90
18384;DHT22;9318;48.644;9.456;2022-12-07T04:01:04;6.50;99.90
18384;DHT22;9318;48.644;9.456;2022-12-07T04:03:31;6.50;99.90
18384;DHT22;9318;48.644;9.456;2022-12-07T04:05:59;6.50;99.90
18384;DHT22;9318;48.644;9.456;2022-12-07T04:08:26;6.50;99.90
18384;DHT22;9318;48.644;9.456;2022-12-07T04:10:53;6.30;99.90
18384;DHT22;9318;48.644;9.456;2022-12-07T04:13:20;6.40;99.90
18384;DHT22;9318;48.644;9.456;2022-12-07T04:15:47;6.40;99.90
18384;DHT22;9318;48.644;9.456;2022-12-07T04:18:16;6.30;99.90
18384;DHT22;9318;48.644;9.456;2022-12-07T04:20:43;6.40;99.90
18384;DHT22;9318;48.644;9.456;2022-12-07T04:23:10;6.40;99.90
18384;DHT22;9318;48.644;9.456;2022-12-07T04:25:37;6.40;99.90
18384;DHT22;9318;48.644;9.456;2022-12-07T04:28:04;6.50;99.90
18384;DHT22;9318;48.644;9.456;2022-12-07T04:30:31;6.40;99.90
18384;DHT22;9318;48.644;9.456;2022-12-07T04:33:01;6.30;99.90
18384;DHT22;9318;48.644;9.456;2022-12-07T04:35:29;6.20;99.90
18384;DHT22;9318;48.644;9.456;2022-12-07T04:37:56;6.20;99.90
18384;DHT22;9318;48.644;9.456;2022-12-07T04:40:23;6.20;99.90
18384;DHT22;9318;48.644;9.456;2022-12-07T04:42:50;6.10;99.90
18384;DHT22;9318;48.644;9.456;2022-12-07T04:45:17;6.20;99.90
18384;DHT22;9318;48.644;9.456;2022-12-07T04:47:44;6.30;99.90
18384;DHT22;9318;48.644;9.456;2022-12-07T04:50:11;6.30;99.90
18384;DHT22;9318;48.644;9.456;2022-12-07T04:52:40;6.30;99.90
18384;DHT22;9318;48.644;9.456;2022-12-07T04:55:07;6.20;99.90
18384;DHT22;9318;48.644;9.456;2022-12-07T04:57:34;6.30;99.90
18384;DHT22;9318;48.644;9.456;2022-12-07T05:00:01;6.40;99.90
18384;DHT22;9318;48.644;9.456;2022-12-07T05:02:29;6.30;99.90
18384;DHT22;9318;48.644;9.456;2022-12-07T05:04:56;6.20;99.90
18384;DHT22;9318;48.644;9.456;2022-12-07T05:07:23;6.10;99.90
18384;DHT22;9318;48.644;9.456;2022-12-07T05:09:52;6.10;99.90
18384;DHT22;9318;48.644;9.456;2022-12-07T05:12:19;5.90;99.90
18384;DHT22;9318;48.644;9.456;2022-12-07T05:14:46;5.80;99.90
18384;DHT22;9318;48.644;9.456;2022-12-07T05:17:13;5.90;99.90
18384;DHT22;9318;48.644;9.456;2022-12-07T05:19:40;5.90;99.90
18384;DHT22;9318;48.644;9.456;2022-12-07T05:22:07;5.80;99.90
18384;DHT22;9318;48.644;9.456;2022-12-07T05:24:35;5.60;99.90
18384;DHT22;9318;48.644;9.456;2022-12-07T05:27:04;5.60;99.90
18384;DHT22;9318;48.644;9.456;2022-12-07T05:29:31;5.50;99.90
18384;DHT22;9318;48.644;9.456;2022-12-07T05:31:58;5.50;99.90
18384;DHT22;9318;48.644;9.456;2022-12-07T05:34:26;5.40;99.90
18384;DHT22;9318;48.644;9.456;2022-12-07T05:36:53;5.40;99.90
18384;DHT22;9318;48.644;9.456;2022-12-07T05:39:20;5.20;99.90
18384;DHT22;9318;48.644;9.456;2022-12-07T05:41:47;5.20;99.90
18384;DHT22;9318;48.644;9.456;2022-12-07T05:44:33;5.20;99.90
18384;DHT22;9318;48.644;9.456;2022-12-07T05:47:01;5.30;99.90
18384;DHT22;9318;48.644;9.456;2022-12-07T05:49:28;5.40;99.90
18384;DHT22;9318;48.644;9.456;2022-12-07T05:51:55;5.40;99.90
18384;DHT22;9318;48.644;9.456;2022-12-07T05:54:23;5.30;99.90
18384;DHT22;9318;48.644;9.456;2022-12-07T05:56:50;5.30;99.90
18384;DHT22;9318;48.644;9.456;2022-12-07T05:59:18;5.30;99.90
18384;DHT22;9318;48.644;9.456;2022-12-07T06:01:52;5.30;99.90
18384;DHT22;9318;48.644;9.456;2022-12-07T06:04:20;5.50;99.90
18384;DHT22;9318;48.644;9.456;2022-12-07T06:06:48;5.60;99.90
18384;DHT22;9318;48.644;9.456;2022-12-07T06:09:15;5.60;99.90
18384;DHT22;9318;48.644;9.456;2022-12-07T06:11:44;5.80;99.90
18384;DHT22;9318;48.644;9.456;2022-12-07T06:14:28;5.70;99.90
18384;DHT22;9318;48.644;9.456;2022-12-07T06:16:58;5.60;99.90
18384;DHT22;9318;48.644;9.456;2022-12-07T06:19:25;5.60;99.90
18384;DHT22;9318;48.644;9.456;2022-12-07T06:21:53;5.70;99.90
18384;DHT22;9318;48.644;9.456;2022-12-07T06:24:21;5.70;99.90
18384;DHT22;9318;48.644;9.456;2022-12-07T06:26:48;5.70;99.90
18384;DHT22;9318;48.644;9.456;2022-12-07T06:29:17;5.70;99.90
18384;DHT22;9318;48.644;9.456;2022-12-07T06:31:44;5.70;99.90
18384;DHT22;9318;48.644;9.456;2022-12-07T06:34:15;5.30;99.90
18384;DHT22;9318;48.644;9.456;2022-12-07T06:36:42;5.20;99.90
18384;DHT22;9318;48.644;9.456;2022-12-07T06:39:10;5.20;99.90
18384;DHT22;9318;48.644;9.456;2022-12-07T06:41:38;5.50;99.90
18384;DHT22;9318;48.644;9.456;2022-12-07T06:44:06;5.70;99.90
18384;DHT22;9318;48.644;9.456;2022-12-07T06:46:33;5.60;99.90
18384;DHT22;9318;48.644;9.456;2022-12-07T06:49:02;5.80;99.90
18384;DHT22;9318;48.644;9.456;2022-12-07T06:51:31;5.80;99.90
18384;DHT22;9318;48.644;9.456;2022-12-07T06:53:58;5.90;99.90
18384;DHT22;9318;48.644;9.456;2022-12-07T06:56:25;5.90;99.90
18384;DHT22;9318;48.644;9.456;2022-12-07T06:58:54;5.80;99.90
18384;DHT22;9318;48.644;9.456;2022-12-07T07:01:21;5.70;99.90
18384;DHT22;9318;48.644;9.456;2022-12-07T07:03:48;5.60;99.90
18384;DHT22;9318;48.644;9.456;2022-12-07T07:06:15;5.50;99.90
18384;DHT22;9318;48.644;9.456;2022-12-07T07:08:44;5.50;99.90
18384;DHT22;9318;48.644;9.456;2022-12-07T07:11:11;5.40;99.90
18384;DHT22;9318;48.644;9.456;2022-12-07T07:13:39;5.30;99.90
18384;DHT22;9318;48.644;9.456;2022-12-07T07:16:07;5.30;99.90
18384;DHT22;9318;48.644;9.456;2022-12-07T07:18:34;5.30;99.90
18384;DHT22;9318;48.644;9.456;2022-12-07T07:21:02;5.30;99.90
18384;DHT22;9318;48.644;9.456;2022-12-07T07:23:29;5.20;99.90
18384;DHT22;9318;48.644;9.456;2022-12-07T07:25:58;5.10;99.90
18384;DHT22;9318;48.644;9.456;2022-12-07T07:28:25;5.10;99.90
18384;DHT22;9318;48.644;9.456;2022-12-07T07:30:53;4.90;99.90
18384;DHT22;9318;48.644;9.456;2022-12-07T07:33:20;4.80;99.90
18384;DHT22;9318;48.644;9.456;2022-12-07T07:35:47;4.70;99.90
18384;DHT22;9318;48.644;9.456;2022-12-07T07:38:15;4.70;99.90
18384;DHT22;9318;48.644;9.456;2022-12-07T07:40:42;4.90;99.90
18384;DHT22;9318;48.644;9.456;2022-12-07T07:43:11;5.00;99.90
18384;DHT22;9318;48.644;9.456;2022-12-07T07:45:38;5.00;99.90
18384;DHT22;9318;48.644;9.456;2022-12-07T07:48:06;5.10;99.90
18384;DHT22;9318;48.644;9.456;2022-12-07T07:50:33;5.10;99.90
18384;DHT22;9318;48.644;9.456;2022-12-07T07:53:01;5.20;99.90
18384;DHT22;9318;48.644;9.456;2022-12-07T07:55:28;5.30;99.90
18384;DHT22;9318;48.644;9.456;2022-12-07T07:57:55;5.30;99.90
18384;DHT22;9318;48.644;9.456;2022-12-07T08:00:24;5.40;99.90
18384;DHT22;9318;48.644;9.456;2022-12-07T08:02:51;5.60;99.90
18384;DHT22;9318;48.644;9.456;2022-12-07T08:05:19;5.80;99.90
18384;DHT22;9318;48.644;9.456;2022-12-07T08:07:46;5.90;99.90
18384;DHT22;9318;48.644;9.456;2022-12-07T08:10:14;6.20;99.90
18384;DHT22;9318;48.644;9.456;2022-12-07T08:12:42;6.50;99.90
18384;DHT22;9318;48.644;9.456;2022-12-07T08:15:25;6.60;99.90
18384;DHT22;9318;48.644;9.456;2022-12-07T08:17:52;6.40;99.90
18384;DHT22;9318;48.644;9.456;2022-12-07T08:20:20;6.30;99.90
18384;DHT22;9318;48.644;9.456;2022-12-07T08:22:47;6.20;99.90
18384;DHT22;9318;48.644;9.456;2022-12-07T08:25:14;6.00;99.90
18384;DHT22;9318;48.644;9.456;2022-12-07T08:27:42;5.90;99.90
18384;DHT22;9318;48.644;9.456;2022-12-07T08:30:10;5.60;99.90
18384;DHT22;9318;48.644;9.456;2022-12-07T08:32:39;5.50;99.90
18384;DHT22;9318;48.644;9.456;2022-12-07T08:35:07;5.30;99.90
18384;DHT22;9318;48.644;9.456;2022-12-07T08:37:34;5.20;99.90
18384;DHT22;9318;48.644;9.456;2022-12-07T08:40:02;5.20;99.90
18384;DHT22;9318;48.644;9.456;2022-12-07T08:42:29;5.30;99.90
18384;DHT22;9318;48.644;9.456;2022-12-07T08:45:05;5.40;99.90
18384;DHT22;9318;48.644;9.456;2022-12-07T08:47:33;5.40;99.90
18384;DHT22;9318;48.644;9.456;2022-12-07T08:50:02;5.50;99.90
18384;DHT22;9318;48.644;9.456;2022-12-07T08:52:30;5.70;99.90
18384;DHT22;9318;48.644;9.456;2022-12-07T08:54:59;5.90;99.90
18384;DHT22;9318;48.644;9.456;2022-12-07T08:57:27;6.10;99.90
18384;DHT22;9318;48.644;9.456;2022-12-07T08:59:54;6.30;99.90
18384;DHT22;9318;48.644;9.456;2022-12-07T09:02:22;6.20;99.90
18384;DHT22;9318;48.644;9.456;2022-12-07T09:04:49;6.30;99.90
18384;DHT22;9318;48.644;9.456;2022-12-07T09:07:18;6.30;99.90
18384;DHT22;9318;48.644;9.456;2022-12-07T09:09:45;6.30;99.90
18384;DHT22;9318;48.644;9.456;2022-12-07T09:12:13;6.40;99.90
18384;DHT22;9318;48.644;9.456;2022-12-07T09:14:40;6.40;99.90
18384;DHT22;9318;48.644;9.456;2022-12-07T09:17:07;6.40;99.90
18384;DHT22;9318;48.644;9.456;2022-12-07T09:19:35;6.60;99.90
18384;DHT22;9318;48.644;9.456;2022-12-07T09:22:03;6.50;99.90
18384;DHT22;9318;48.644;9.456;2022-12-07T09:24:33;6.50;99.90
18384;DHT22;9318;48.644;9.456;2022-12-07T09:27:00;6.30;99.90
18384;DHT22;9318;48.644;9.456;2022-12-07T09:29:27;6.20;99.90
18384;DHT22;9318;48.644;9.456;2022-12-07T09:31:55;6.00;99.90
18384;DHT22;9318;48.644;9.456;2022-12-07T09:34:22;6.00;99.90
18384;DHT22;9318;48.644;9.456;2022-12-07T09:36:49;6.10;99.90
18384;DHT22;9318;48.644;9.456;2022-12-07T09:39:16;6.20;99.90
18384;DHT22;9318;48.644;9.456;2022-12-07T09:41:46;6.30;99.90
18384;DHT22;9318;48.644;9.456;2022-12-07T09:44:17;6.50;99.90
18384;DHT22;9318;48.644;9.456;2022-12-07T09:46:47;6.70;99.90
18384;DHT22;9318;48.644;9.456;2022-12-07T09:49:22;6.80;99.90
18384;DHT22;9318;48.644;9.456;2022-12-07T09:52:00;6.70;99.90
18384;DHT22;9318;48.644;9.456;2022-12-07T09:54:28;6.70;99.90
18384;DHT22;9318;48.644;9.456;2022-12-07T09:56:58;6.70;99.90
18384;DHT22;9318;48.644;9.456;2022-12-07T09:59:25;6.80;99.90
18384;DHT22;9318;48.644;9.456;2022-12-07T10:01:53;6.70;99.90
18384;DHT22;9318;48.644;9.456;2022-12-07T10:04:22;6.40;99.90
18384;DHT22;9318;48.644;9.456;2022-12-07T10:06:50;6.30;99.90
18384;DHT22;9318;48.644;9.456;2022-12-07T10:09:20;6.30;99.90
18384;DHT22;9318;48.644;9.456;2022-12-07T10:12:05;6.30;99.90
18384;DHT22;9318;48.644;9.456;2022-12-07T10:14:36;6.60;99.90
18384;DHT22;9318;48.644;9.456;2022-12-07T10:17:28;6.70;99.90
18384;DHT22;9318;48.644;9.456;2022-12-07T10:20:19;7.10;99.90
18384;DHT22;9318;48.644;9.456;2022-12-07T10:22:57;7.30;99.90
18384;DHT22;9318;48.644;9.456;2022-12-07T10:25:28;7.40;99.90
18384;DHT22;9318;48.644;9.456;2022-12-07T10:28:00;7.50;99.90
18384;DHT22;9318;48.644;9.456;2022-12-07T10:30:29;7.50;99.90
18384;DHT22;9318;48.644;9.456;2022-12-07T10:32:57;7.30;99.90
18384;DHT22;9318;48.644;9.456;2022-12-07T10:35:26;7.40;99.90
18384;DHT22;9318;48.644;9.456;2022-12-07T10:37:55;7.50;99.90
18384;DHT22;9318;48.644;9.456;2022-12-07T10:40:26;7.50;99.90
18384;DHT22;9318;48.644;9.456;2022-12-07T10:43:13;7.30;99.90
18384;DHT22;9318;48.644;9.456;2022-12-07T10:48:48;7.40;99.90
18384;DHT22;9318;48.644;9.456;2022-12-07T10:51:22;7.30;99.90
18384;DHT22;9318;48.644;9.456;2022-12-07T10:53:58;7.40;99.90
18384;DHT22;9318;48.644;9.456;2022-12-07T10:56:49;7.40;99.90
18384;DHT22;9318;48.644;9.456;2022-12-07T10:59:49;7.50;99.90
18384;DHT22;9318;48.644;9.456;2022-12-07T11:02:37;7.50;99.90
18384;DHT22;9318;48.644;9.456;2022-12-07T11:05:17;7.50;99.90
18384;DHT22;9318;48.644;9.456;2022-12-07T11:07:54;7.70;99.90
18384;DHT22;9318;48.644;9.456;2022-12-07T11:10:27;8.10;99.90
18384;DHT22;9318;48.644;9.456;2022-12-07T11:13:07;8.10;99.90
18384;DHT22;9318;48.644;9.456;2022-12-07T11:15:52;8.00;99.90
18384;DHT22;9318;48.644;9.456;2022-12-07T11:18:25;7.90;99.90
18384;DHT22;9318;48.644;9.456;2022-12-07T11:20:58;7.90;99.90
18384;DHT22;9318;48.644;9.456;2022-12-07T11:23:39;7.80;99.90
18384;DHT22;9318;48.644;9.456;2022-12-07T11:26:16;7.40;99.90
18384;DHT22;9318;48.644;9.456;2022-12-07T11:29:02;7.10;99.90
18384;DHT22;9318;48.644;9.456;2022-12-07T11:31:37;6.80;99.90
18384;DHT22;9318;48.644;9.456;2022-12-07T11:34:17;6.60;99.90
18384;DHT22;9318;48.644;9.456;2022-12-07T11:36:47;6.70;99.90
18384;DHT22;9318;48.644;9.456;2022-12-07T11:39:22;6.80;99.90
18384;DHT22;9318;48.644;9.456;2022-12-07T11:41:56;6.90;99.90
18384;DHT22;9318;48.644;9.456;2022-12-07T11:44:32;7.10;99.90
18384;DHT22;9318;48.644;9.456;2022-12-07T11:47:07;7.10;99.90
18384;DHT22;9318;48.644;9.456;2022-12-07T11:49:43;7.20;99.90
18384;DHT22;9318;48.644;9.456;2022-12-07T11:52:20;7.20;99.90
18384;DHT22;9318;48.644;9.456;2022-12-07T11:54:50;7.10;99.90
18384;DHT22;9318;48.644;9.456;2022-12-07T11:57:24;7.20;99.90
18384;DHT22;9318;48.644;9.456;2022-12-07T11:59:58;7.30;99.90
18384;DHT22;9318;48.644;9.456;2022-12-07T12:02:34;7.20;99.90
18384;DHT22;9318;48.644;9.456;2022-12-07T12:05:12;7.10;99.90
18384;DHT22;9318;48.644;9.456;2022-12-07T12:07:42;7.30;99.90
18384;DHT22;9318;48.644;9.456;2022-12-07T12:10:18;7.30;99.90
18384;DHT22;9318;48.644;9.456;2022-12-07T12:13:14;7.10;99.90
18384;DHT22;9318;48.644;9.456;2022-12-07T12:15:59;7.20;99.90
18384;DHT22;9318;48.644;9.456;2022-12-07T12:18:53;7.30;99.90
18384;DHT22;9318;48.644;9.456;2022-12-07T12:21:27;7.30;99.90
18384;DHT22;9318;48.644;9.456;2022-12-07T12:23:58;7.20;99.90
18384;DHT22;9318;48.644;9.456;2022-12-07T12:26:29;7.30;99.90
18384;DHT22;9318;48.644;9.456;2022-12-07T12:29:00;7.50;99.90
18384;DHT22;9318;48.644;9.456;2022-12-07T12:31:38;7.60;99.90
18384;DHT22;9318;48.644;9.456;2022-12-07T12:34:38;7.60;99.90
18384;DHT22;9318;48.644;9.456;2022-12-07T12:37:43;7.60;99.90
18384;DHT22;9318;48.644;9.456;2022-12-07T12:43:40;7.80;99.90
18384;DHT22;9318;48.644;9.456;2022-12-07T12:49:58;7.60;99.90
18384;DHT22;9318;48.644;9.456;2022-12-07T12:52:57;7.70;99.90
18384;DHT22;9318;48.644;9.456;2022-12-07T12:58:45;7.60;99.90
18384;DHT22;9318;48.644;9.456;2022-12-07T13:01:46;7.70;99.90
18384;DHT22;9318;48.644;9.456;2022-12-07T13:07:01;8.00;99.90
18384;DHT22;9318;48.644;9.456;2022-12-07T13:09:30;8.20;99.90
18384;DHT22;9318;48.644;9.456;2022-12-07T13:12:02;8.10;99.90
18384;DHT22;9318;48.644;9.456;2022-12-07T13:14:53;8.10;99.90
18384;DHT22;9318;48.644;9.456;2022-12-07T13:20:55;7.80;99.90
18384;DHT22;9318;48.644;9.456;2022-12-07T13:23:29;7.80;99.90
18384;DHT22;9318;48.644;9.456;2022-12-07T13:26:11;7.80;99.90
18384;DHT22;9318;48.644;9.456;2022-12-07T13:28:42;7.70;99.90
18384;DHT22;9318;48.644;9.456;2022-12-07T13:31:19;7.60;99.90
18384;DHT22;9318;48.644;9.456;2022-12-07T13:33:47;7.50;99.90
18384;DHT22;9318;48.644;9.456;2022-12-07T13:36:20;7.30;99.90
18384;DHT22;9318;48.644;9.456;2022-12-07T13:38:54;7.10;99.90
18384;DHT22;9318;48.644;9.456;2022-12-07T13:41:23;7.10;99.90
18384;DHT22;9318;48.644;9.456;2022-12-07T13:43:55;7.30;99.90
18384;DHT22;9318;48.644;9.456;2022-12-07T13:46:35;7.40;99.90
18384;DHT22;9318;48.644;9.456;2022-12-07T13:49:17;7.30;99.90
18384;DHT22;9318;48.644;9.456;2022-12-07T13:51:44;6.90;99.90
18384;DHT22;9318;48.644;9.456;2022-12-07T13:54:13;6.80;99.90
18384;DHT22;9318;48.644;9.456;2022-12-07T13:56:41;6.90;99.90
18384;DHT22;9318;48.644;9.456;2022-12-07T13:59:14;6.90;99.90
18384;DHT22;9318;48.644;9.456;2022-12-07T14:01:41;7.10;99.90
18384;DHT22;9318;48.644;9.456;2022-12-07T14:04:26;7.20;99.90
18384;DHT22;9318;48.644;9.456;2022-12-07T14:06:56;7.40;99.90
18384;DHT22;9318;48.644;9.456;2022-12-07T14:09:26;7.50;99.90
18384;DHT22;9318;48.644;9.456;2022-12-07T14:11:56;7.60;99.90
18384;DHT22;9318;48.644;9.456;2022-12-07T14:14:26;7.60;99.90
18384;DHT22;9318;48.644;9.456;2022-12-07T14:17:00;7.80;99.90
18384;DHT22;9318;48.644;9.456;2022-12-07T14:19:55;7.70;99.90
18384;DHT22;9318;48.644;9.456;2022-12-07T14:22:28;7.90;99.90
18384;DHT22;9318;48.644;9.456;2022-12-07T14:25:20;7.90;99.90
18384;DHT22;9318;48.644;9.456;2022-12-07T14:27:53;7.90;99.90
18384;DHT22;9318;48.644;9.456;2022-12-07T14:30:23;7.90;99.90
18384;DHT22;9318;48.644;9.456;2022-12-07T14:32:54;7.90;99.90
18384;DHT22;9318;48.644;9.456;2022-12-07T14:35:21;8.00;99.90
18384;DHT22;9318;48.644;9.456;2022-12-07T14:37:49;7.90;99.90
18384;DHT22;9318;48.644;9.456;2022-12-07T14:40:20;7.90;99.90
18384;DHT22;9318;48.644;9.456;2022-12-07T14:42:51;7.80;99.90
18384;DHT22;9318;48.644;9.456;2022-12-07T14:45:21;7.80;99.90
18384;DHT22;9318;48.644;9.456;2022-12-07T14:47:49;7.70;99.90
18384;DHT22;9318;48.644;9.456;2022-12-07T14:50:18;7.60;99.90
18384;DHT22;9318;48.644;9.456;2022-12-07T14:52:48;7.70;99.90
18384;DHT22;9318;48.644;9.456;2022-12-07T14:55:22;7.70;99.90
18384;DHT22;9318;48.644;9.456;2022-12-07T14:57:50;7.60;99.90
18384;DHT22;9318;48.644;9.456;2022-12-07T15:00:19;7.50;99.90
18384;DHT22;9318;48.644;9.456;2022-12-07T15:02:47;7.60;99.90
18384;DHT22;9318;48.644;9.456;2022-12-07T15:05:15;7.60;99.90
18384;DHT22;9318;48.644;9.456;2022-12-07T15:07:43;7.70;99.90
18384;DHT22;9318;48.644;9.456;2022-12-07T15:10:15;7.50;99.90
18384;DHT22;9318;48.644;9.456;2022-12-07T15:12:45;7.50;99.90
18384;DHT22;9318;48.644;9.456;2022-12-07T15:15:13;7.50;99.90
18384;DHT22;9318;48.644;9.456;2022-12-07T15:17:40;7.40;99.90
18384;DHT22;9318;48.644;9.456;2022-12-07T15:20:11;7.40;99.90
18384;DHT22;9318;48.644;9.456;2022-12-07T15:22:38;7.30;99.90
18384;DHT22;9318;48.644;9.456;2022-12-07T15:25:06;7.30;99.90
18384;DHT22;9318;48.644;9.456;2022-12-07T15:27:34;7.30;99.90
18384;DHT22;9318;48.644;9.456;2022-12-07T15:30:03;7.30;99.90
18384;DHT22;9318;48.644;9.456;2022-12-07T15:32:31;7.30;99.90
18384;DHT22;9318;48.644;9.456;2022-12-07T15:34:58;7.20;99.90
18384;DHT22;9318;48.644;9.456;2022-12-07T15:37:25;7.20;99.90
18384;DHT22;9318;48.644;9.456;2022-12-07T15:39:52;7.20;99.90
18384;DHT22;9318;48.644;9.456;2022-12-07T15:42:20;7.10;99.90
18384;DHT22;9318;48.644;9.456;2022-12-07T15:44:47;7.10;99.90
18384;DHT22;9318;48.644;9.456;2022-12-07T15:47:34;7.00;99.90
18384;DHT22;9318;48.644;9.456;2022-12-07T15:50:02;7.10;99.90
18384;DHT22;9318;48.644;9.456;2022-12-07T15:52:31;7.10;99.90
18384;DHT22;9318;48.644;9.456;2022-12-07T15:54:58;7.30;99.90
18384;DHT22;9318;48.644;9.456;2022-12-07T15:57:28;7.30;99.90
18384;DHT22;9318;48.644;9.456;2022-12-07T15:59:55;7.40;99.90
18384;DHT22;9318;48.644;9.456;2022-12-07T16:02:23;7.30;99.90
18384;DHT22;9318;48.644;9.456;2022-12-07T16:04:52;7.30;99.90
18384;DHT22;9318;48.644;9.456;2022-12-07T16:07:20;7.50;99.90
18384;DHT22;9318;48.644;9.456;2022-12-07T16:09:47;7.30;99.90
18384;DHT22;9318;48.644;9.456;2022-12-07T16:12:15;7.20;99.90
18384;DHT22;9318;48.644;9.456;2022-12-07T16:14:43;7.30;99.90
18384;DHT22;9318;48.644;9.456;2022-12-07T16:17:10;7.40;99.90
18384;DHT22;9318;48.644;9.456;2022-12-07T16:19:38;7.50;99.90
18384;DHT22;9318;48.644;9.456;2022-12-07T16:22:07;7.40;99.90
18384;DHT22;9318;48.644;9.456;2022-12-07T16:24:34;7.30;99.90
18384;DHT22;9318;48.644;9.456;2022-12-07T16:27:01;7.40;99.90
18384;DHT22;9318;48.644;9.456;2022-12-07T16:29:29;7.50;99.90
18384;DHT22;9318;48.644;9.456;2022-12-07T16:31:56;7.50;99.90
18384;DHT22;9318;48.644;9.456;2022-12-07T16:34:23;7.40;99.90
18384;DHT22;9318;48.644;9.456;2022-12-07T16:36:50;7.30;99.90
18384;DHT22;9318;48.644;9.456;2022-12-07T16:39:19;7.30;99.90
18384;DHT22;9318;48.644;9.456;2022-12-07T16:41:47;7.40;99.90
18384;DHT22;9318;48.644;9.456;2022-12-07T16:44:14;7.40;99.90
18384;DHT22;9318;48.644;9.456;2022-12-07T16:46:41;7.30;99.90